createdAt,value
2018-03-27T00:00:38.664Z,0
2018-03-27T00:01:38.626Z,0
2018-03-27T00:02:38.603Z,0
2018-03-27T00:03:38.610Z,0
2018-03-27T00:04:37.829Z,0
2018-03-27T00:05:38.584Z,0
2018-03-27T00:06:38.302Z,0
2018-03-27T00:07:38.557Z,0
2018-03-27T00:08:38.026Z,0
2018-03-27T00:09:38.519Z,0
2018-03-27T00:10:38.263Z,0
2018-03-27T00:11:38.252Z,0
2018-03-27T00:12:38.256Z,0
2018-03-27T00:13:38.475Z,0
2018-03-27T00:14:38.480Z,0
2018-03-27T00:15:38.212Z,0
2018-03-27T00:16:38.590Z,0
2018-03-27T00:17:38.431Z,0
2018-03-27T00:18:37.929Z,0
2018-03-27T00:19:38.419Z,0
2018-03-27T00:20:38.393Z,0
2018-03-27T00:21:37.883Z,0
2018-03-27T00:22:38.390Z,0
2018-03-27T00:23:38.368Z,0
2018-03-27T00:24:38.352Z,0
2018-03-27T00:25:38.333Z,0
2018-03-27T00:26:38.324Z,0
2018-03-27T00:27:38.315Z,0
2018-03-27T00:28:38.061Z,0
2018-03-27T00:29:37.529Z,0
2018-03-27T00:30:38.274Z,0
2018-03-27T00:31:38.063Z,0
2018-03-27T00:32:38.008Z,0
2018-03-27T00:33:38.269Z,0
2018-03-27T00:34:37.979Z,0
2018-03-27T00:35:38.006Z,0
2018-03-27T00:36:37.698Z,0
2018-03-27T00:37:38.207Z,0
2018-03-27T00:38:38.187Z,0
2018-03-27T00:39:37.660Z,0
2018-03-27T00:40:37.402Z,0
2018-03-27T00:41:37.903Z,0
2018-03-27T00:42:38.144Z,0
2018-03-27T00:43:38.124Z,0
2018-03-27T00:44:38.119Z,0
2018-03-27T00:45:38.104Z,0
2018-03-27T00:46:38.115Z,0
2018-03-27T00:47:38.076Z,0
2018-03-27T00:48:37.810Z,0
2018-03-27T00:49:37.546Z,0
2018-03-27T00:50:37.781Z,0
2018-03-27T00:51:37.776Z,0
2018-03-27T00:52:38.011Z,0
2018-03-27T00:53:37.492Z,0
2018-03-27T00:54:37.998Z,0
2018-03-27T00:55:37.986Z,0
2018-03-27T00:56:37.460Z,0
2018-03-27T00:57:37.713Z,0
2018-03-27T00:58:37.695Z,0
2018-03-27T00:59:37.942Z,0
2018-03-27T01:00:37.669Z,0
2018-03-27T01:01:37.654Z,0
2018-03-27T01:02:37.904Z,0
2018-03-27T01:03:37.888Z,0
2018-03-27T01:04:37.876Z,0
2018-03-27T01:05:37.860Z,0
2018-03-27T01:06:37.862Z,0
2018-03-27T01:07:37.584Z,0
2018-03-27T01:08:37.065Z,0
2018-03-27T01:09:37.813Z,0
2018-03-27T01:10:37.542Z,0
2018-03-27T01:11:37.794Z,0
2018-03-27T01:12:37.519Z,0
2018-03-27T01:13:37.773Z,0
2018-03-27T01:14:37.755Z,0
2018-03-27T01:15:37.744Z,0
2018-03-27T01:16:37.744Z,0
2018-03-27T01:17:37.209Z,0
2018-03-27T01:18:37.450Z,0
2018-03-27T01:19:37.696Z,0
2018-03-27T01:20:37.687Z,0
2018-03-27T01:21:37.671Z,0
2018-03-27T01:22:37.405Z,0
2018-03-27T01:23:37.663Z,0
2018-03-27T01:24:37.128Z,0
2018-03-27T01:25:37.631Z,0
2018-03-27T01:26:37.615Z,0
2018-03-27T01:27:37.094Z,0
2018-03-27T01:28:37.591Z,0
2018-03-27T01:29:37.329Z,0
2018-03-27T01:30:37.068Z,0
2018-03-27T01:31:37.558Z,0
2018-03-27T01:32:37.300Z,0
2018-03-27T01:33:37.278Z,0
2018-03-27T01:34:37.265Z,0
2018-03-27T01:35:37.530Z,0
2018-03-27T01:36:37.500Z,0
2018-03-27T01:37:37.491Z,0
2018-03-27T01:38:36.970Z,0
2018-03-27T01:39:37.532Z,0
2018-03-27T01:40:37.234Z,0
2018-03-27T01:41:37.204Z,0
2018-03-27T01:42:37.460Z,0
2018-03-27T01:43:37.425Z,0
2018-03-27T01:44:37.181Z,0
2018-03-27T01:45:36.901Z,0
2018-03-27T01:46:37.384Z,0
2018-03-27T01:47:37.369Z,0
2018-03-27T01:48:37.359Z,0
2018-03-27T01:49:37.124Z,0
2018-03-27T01:50:37.372Z,0
2018-03-27T01:51:37.088Z,0
2018-03-27T01:52:36.800Z,0
2018-03-27T01:53:37.069Z,0
2018-03-27T01:54:36.800Z,0
2018-03-27T01:55:36.792Z,0
2018-03-27T01:56:37.035Z,0
2018-03-27T01:57:37.048Z,0
2018-03-27T01:58:36.751Z,0
2018-03-27T01:59:36.495Z,0
2018-03-27T02:00:36.976Z,0
2018-03-27T02:01:37.268Z,0
2018-03-27T02:02:37.627Z,0
2018-03-27T02:03:37.177Z,0
2018-03-27T02:04:37.182Z,0
2018-03-27T02:05:36.929Z,0
2018-03-27T02:06:37.157Z,0
2018-03-27T02:07:37.151Z,0
2018-03-27T02:08:36.868Z,0
2018-03-27T02:09:37.126Z,0
2018-03-27T02:10:36.338Z,0
2018-03-27T02:11:36.869Z,0
2018-03-27T02:12:37.115Z,0
2018-03-27T02:13:37.097Z,0
2018-03-27T02:14:36.553Z,0
2018-03-27T02:15:37.057Z,0
2018-03-27T02:16:37.031Z,0
2018-03-27T02:17:37.028Z,0
2018-03-27T02:18:37.038Z,0
2018-03-27T02:19:37.045Z,0
2018-03-27T02:20:37.056Z,0
2018-03-27T02:21:36.733Z,0
2018-03-27T02:22:36.757Z,0
2018-03-27T02:23:36.952Z,0
2018-03-27T02:24:36.955Z,0
2018-03-27T02:25:36.677Z,0
2018-03-27T02:26:36.915Z,0
2018-03-27T02:27:36.897Z,0
2018-03-27T02:28:36.378Z,0
2018-03-27T02:29:36.886Z,0
2018-03-27T02:30:36.865Z,0
2018-03-27T02:31:36.875Z,0
2018-03-27T02:32:36.848Z,0
2018-03-27T02:33:36.829Z,0
2018-03-27T02:34:36.320Z,0
2018-03-27T02:35:36.810Z,0
2018-03-27T02:36:36.569Z,0
2018-03-27T02:37:36.559Z,0
2018-03-27T02:38:36.270Z,0
2018-03-27T02:39:36.256Z,0
2018-03-27T02:40:36.248Z,0
2018-03-27T02:41:36.752Z,0
2018-03-27T02:42:36.732Z,0
2018-03-27T02:43:36.726Z,0
2018-03-27T02:44:36.711Z,0
2018-03-27T02:45:36.699Z,0
2018-03-27T02:46:36.691Z,0
2018-03-27T02:47:36.670Z,0
2018-03-27T02:48:36.676Z,0
2018-03-27T02:49:36.398Z,0
2018-03-27T02:50:36.125Z,0
2018-03-27T02:51:36.383Z,0
2018-03-27T02:52:36.122Z,0
2018-03-27T02:53:36.120Z,0
2018-03-27T02:54:36.657Z,0
2018-03-27T02:55:36.585Z,0
2018-03-27T02:56:36.784Z,0
2018-03-27T02:57:36.552Z,0
2018-03-27T02:58:36.558Z,0
2018-03-27T02:59:36.283Z,0
2018-03-27T03:00:36.266Z,0
2018-03-27T03:01:36.542Z,0
2018-03-27T03:02:36.500Z,0
2018-03-27T03:03:36.512Z,0
2018-03-27T03:04:35.713Z,0
2018-03-27T03:05:36.460Z,0
2018-03-27T03:06:36.459Z,0
2018-03-27T03:07:36.195Z,0
2018-03-27T03:08:36.176Z,0
2018-03-27T03:09:36.424Z,0
2018-03-27T03:10:36.397Z,0
2018-03-27T03:11:35.873Z,0
2018-03-27T03:12:36.382Z,0
2018-03-27T03:13:35.858Z,0
2018-03-27T03:14:36.090Z,0
2018-03-27T03:15:35.828Z,0
2018-03-27T03:16:36.325Z,0
2018-03-27T03:17:36.310Z,0
2018-03-27T03:18:36.302Z,0
2018-03-27T03:19:36.291Z,0
2018-03-27T03:20:36.362Z,0
2018-03-27T03:21:35.755Z,0
2018-03-27T03:22:36.247Z,0
2018-03-27T03:23:36.237Z,0
2018-03-27T03:24:35.728Z,0
2018-03-27T03:25:35.713Z,0
2018-03-27T03:26:35.948Z,0
2018-03-27T03:27:36.197Z,0
2018-03-27T03:28:36.187Z,0
2018-03-27T03:29:35.967Z,0
2018-03-27T03:30:35.670Z,0
2018-03-27T03:31:35.912Z,0
2018-03-27T03:32:36.131Z,0
2018-03-27T03:33:36.134Z,0
2018-03-27T03:34:35.859Z,0
2018-03-27T03:35:35.847Z,0
2018-03-27T03:36:36.084Z,0
2018-03-27T03:37:36.070Z,0
2018-03-27T03:38:35.810Z,0
2018-03-27T03:39:36.048Z,0
2018-03-27T03:40:36.040Z,0
2018-03-27T03:41:35.524Z,0
2018-03-27T03:42:35.766Z,0
2018-03-27T03:43:35.769Z,0
2018-03-27T03:44:35.498Z,0
2018-03-27T03:45:35.993Z,0
2018-03-27T03:46:35.717Z,0
2018-03-27T03:47:35.953Z,0
2018-03-27T03:48:35.687Z,0
2018-03-27T03:49:35.425Z,0
2018-03-27T03:50:35.916Z,0
2018-03-27T03:51:35.906Z,0
2018-03-27T03:52:35.896Z,0
2018-03-27T03:53:35.884Z,0
2018-03-27T03:54:35.620Z,0
2018-03-27T03:55:35.866Z,0
2018-03-27T03:56:35.845Z,0
2018-03-27T03:57:35.840Z,0
2018-03-27T03:58:35.825Z,0
2018-03-27T03:59:35.813Z,0
2018-03-27T04:00:35.940Z,0
2018-03-27T04:01:35.790Z,0
2018-03-27T04:02:35.521Z,0
2018-03-27T04:03:35.267Z,0
2018-03-27T04:04:35.500Z,0
2018-03-27T04:05:35.742Z,0
2018-03-27T04:06:35.221Z,0
2018-03-27T04:07:35.716Z,0
2018-03-27T04:08:35.702Z,0
2018-03-27T04:09:35.696Z,0
2018-03-27T04:10:35.681Z,0
2018-03-27T04:11:35.419Z,0
2018-03-27T04:12:35.657Z,0
2018-03-27T04:13:35.646Z,0
2018-03-27T04:14:35.646Z,0
2018-03-27T04:15:35.113Z,0
2018-03-27T04:16:35.629Z,0
2018-03-27T04:17:35.607Z,0
2018-03-27T04:18:35.587Z,0
2018-03-27T04:19:35.616Z,0
2018-03-27T04:20:35.564Z,0
2018-03-27T04:21:35.292Z,0
2018-03-27T04:22:35.041Z,0
2018-03-27T04:23:35.522Z,0
2018-03-27T04:24:35.261Z,0
2018-03-27T04:25:35.518Z,0
2018-03-27T04:26:34.981Z,0
2018-03-27T04:27:35.471Z,0
2018-03-27T04:28:35.214Z,0
2018-03-27T04:29:35.452Z,0
2018-03-27T04:30:35.436Z,0
2018-03-27T04:31:35.179Z,0
2018-03-27T04:32:34.904Z,0
2018-03-27T04:33:35.399Z,0
2018-03-27T04:34:35.388Z,0
2018-03-27T04:35:35.372Z,0
2018-03-27T04:36:35.364Z,0
2018-03-27T04:37:35.370Z,0
2018-03-27T04:38:35.352Z,0
2018-03-27T04:39:34.584Z,0
2018-03-27T04:40:35.319Z,0
2018-03-27T04:41:35.310Z,0
2018-03-27T04:42:35.034Z,0
2018-03-27T04:43:35.030Z,0
2018-03-27T04:44:35.271Z,0
2018-03-27T04:45:35.255Z,0
2018-03-27T04:46:34.987Z,0
2018-03-27T04:47:34.981Z,0
2018-03-27T04:48:34.965Z,0
2018-03-27T04:49:34.447Z,0
2018-03-27T04:50:35.193Z,0
2018-03-27T04:51:34.939Z,0
2018-03-27T04:52:35.127Z,0
2018-03-27T04:53:34.911Z,0
2018-03-27T04:54:34.651Z,0
2018-03-27T04:55:34.883Z,0
2018-03-27T04:56:35.131Z,5
2018-03-27T04:57:34.859Z,5
2018-03-27T04:58:35.106Z,5
2018-03-27T04:59:34.846Z,5
2018-03-27T05:00:34.822Z,5
2018-03-27T05:01:35.069Z,5
2018-03-27T05:02:34.894Z,5
2018-03-27T05:03:34.788Z,10
2018-03-27T05:04:34.526Z,10
2018-03-27T05:05:34.517Z,10
2018-03-27T05:06:35.011Z,10
2018-03-27T05:07:34.737Z,15
2018-03-27T05:08:34.733Z,15
2018-03-27T05:09:34.984Z,15
2018-03-27T05:10:34.450Z,15
2018-03-27T05:11:34.712Z,15
2018-03-27T05:12:34.440Z,20
2018-03-27T05:13:34.925Z,20
2018-03-27T05:14:34.956Z,20
2018-03-27T05:15:34.390Z,20
2018-03-27T05:16:34.886Z,20
2018-03-27T05:17:34.878Z,20
2018-03-27T05:18:34.614Z,20
2018-03-27T05:19:34.594Z,20
2018-03-27T05:20:34.581Z,20
2018-03-27T05:21:34.830Z,25
2018-03-27T05:22:34.573Z,25
2018-03-27T05:23:34.811Z,25
2018-03-27T05:24:34.536Z,30
2018-03-27T05:25:34.780Z,30
2018-03-27T05:26:34.892Z,30
2018-03-27T05:27:34.754Z,35
2018-03-27T05:28:34.750Z,35
2018-03-27T05:29:34.484Z,35
2018-03-27T05:30:34.724Z,40
2018-03-27T05:31:34.455Z,40
2018-03-27T05:32:34.698Z,45
2018-03-27T05:33:34.439Z,45
2018-03-27T05:34:34.683Z,50
2018-03-27T05:35:34.410Z,55
2018-03-27T05:36:34.657Z,55
2018-03-27T05:37:34.383Z,60
2018-03-27T05:38:34.626Z,65
2018-03-27T05:39:34.629Z,65
2018-03-27T05:40:34.353Z,60
2018-03-27T05:41:34.603Z,65
2018-03-27T05:42:34.575Z,65
2018-03-27T05:43:34.592Z,65
2018-03-27T05:44:34.573Z,70
2018-03-27T05:45:34.062Z,70
2018-03-27T05:46:34.024Z,75
2018-03-27T05:47:34.566Z,80
2018-03-27T05:48:34.517Z,80
2018-03-27T05:49:34.290Z,85
2018-03-27T05:50:34.487Z,90
2018-03-27T05:51:34.223Z,95
2018-03-27T05:52:34.462Z,100
2018-03-27T05:53:34.196Z,105
2018-03-27T05:54:33.926Z,110
2018-03-27T05:55:33.916Z,125
2018-03-27T05:56:34.411Z,140
2018-03-27T05:57:34.406Z,150
2018-03-27T05:58:34.138Z,160
2018-03-27T05:59:34.129Z,155
2018-03-27T06:00:34.364Z,155
2018-03-27T06:01:34.362Z,160
2018-03-27T06:02:34.099Z,170
2018-03-27T06:03:34.333Z,170
2018-03-27T06:04:34.083Z,160
2018-03-27T06:05:33.799Z,135
2018-03-27T06:06:34.225Z,115
2018-03-27T06:07:33.790Z,100
2018-03-27T06:08:34.292Z,85
2018-03-27T06:09:33.782Z,80
2018-03-27T06:10:34.338Z,70
2018-03-27T06:11:33.750Z,65
2018-03-27T06:12:34.240Z,60
2018-03-27T06:13:33.982Z,55
2018-03-27T06:14:33.954Z,50
2018-03-27T06:15:33.958Z,50
2018-03-27T06:16:33.938Z,45
2018-03-27T06:17:34.187Z,50
2018-03-27T06:18:34.194Z,50
2018-03-27T06:19:33.648Z,55
2018-03-27T06:20:33.896Z,65
2018-03-27T06:21:33.643Z,70
2018-03-27T06:22:34.123Z,80
2018-03-27T06:23:34.148Z,90
2018-03-27T06:24:33.910Z,95
2018-03-27T06:25:33.856Z,105
2018-03-27T06:26:33.828Z,120
2018-03-27T06:27:33.935Z,140
2018-03-27T06:28:34.065Z,155
2018-03-27T06:29:34.082Z,175
2018-03-27T06:30:34.038Z,180
2018-03-27T06:31:34.040Z,190
2018-03-27T06:32:34.014Z,190
2018-03-27T06:33:34.021Z,180
2018-03-27T06:34:33.999Z,170
2018-03-27T06:35:33.803Z,160
2018-03-27T06:36:33.489Z,155
2018-03-27T06:37:33.716Z,155
2018-03-27T06:38:33.975Z,155
2018-03-27T06:39:33.442Z,160
2018-03-27T06:40:33.933Z,170
2018-03-27T06:41:33.929Z,180
2018-03-27T06:42:33.915Z,195
2018-03-27T06:43:33.648Z,215
2018-03-27T06:44:33.895Z,240
2018-03-27T06:45:33.895Z,260
2018-03-27T06:46:33.897Z,265
2018-03-27T06:47:33.899Z,260
2018-03-27T06:48:33.863Z,260
2018-03-27T06:49:33.593Z,265
2018-03-27T06:50:33.847Z,275
2018-03-27T06:51:33.572Z,295
2018-03-27T06:52:33.563Z,300
2018-03-27T06:53:33.810Z,305
2018-03-27T06:54:33.553Z,290
2018-03-27T06:55:33.047Z,275
2018-03-27T06:56:33.538Z,275
2018-03-27T06:57:33.522Z,285
2018-03-27T06:58:33.506Z,290
2018-03-27T06:59:33.513Z,305
2018-03-27T07:00:33.244Z,320
2018-03-27T07:01:33.229Z,335
2018-03-27T07:02:33.761Z,365
2018-03-27T07:03:33.834Z,385
2018-03-27T07:04:33.783Z,395
2018-03-27T07:05:33.693Z,410
2018-03-27T07:06:33.787Z,420
2018-03-27T07:07:33.741Z,425
2018-03-27T07:08:33.723Z,435
2018-03-27T07:09:33.485Z,445
2018-03-27T07:10:33.779Z,440
2018-03-27T07:11:33.708Z,430
2018-03-27T07:12:33.198Z,425
2018-03-27T07:13:33.687Z,430
2018-03-27T07:14:33.672Z,440
2018-03-27T07:15:33.400Z,470
2018-03-27T07:16:33.658Z,510
2018-03-27T07:17:33.133Z,575
2018-03-27T07:18:33.638Z,620
2018-03-27T07:19:33.153Z,565
2018-03-27T07:20:33.412Z,450
2018-03-27T07:21:33.581Z,405
2018-03-27T07:22:33.623Z,390
2018-03-27T07:23:33.579Z,410
2018-03-27T07:24:33.564Z,480
2018-03-27T07:25:32.536Z,490
2018-03-27T07:26:33.530Z,525
2018-03-27T07:27:33.022Z,530
2018-03-27T07:28:33.511Z,430
2018-03-27T07:29:33.529Z,405
2018-03-27T07:30:33.550Z,415
2018-03-27T07:31:33.254Z,450
2018-03-27T07:32:33.672Z,550
2018-03-27T07:33:33.244Z,825
2018-03-27T07:34:33.477Z,1225
2018-03-27T07:35:33.481Z,1210
2018-03-27T07:36:32.955Z,1230
2018-03-27T07:37:33.490Z,1220
2018-03-27T07:38:33.461Z,1195
2018-03-27T07:39:33.445Z,1175
2018-03-27T07:40:33.313Z,1180
2018-03-27T07:41:33.447Z,1225
2018-03-27T07:42:33.437Z,1195
2018-03-27T07:43:33.196Z,1060
2018-03-27T07:44:33.194Z,975
2018-03-27T07:45:33.430Z,955
2018-03-27T07:46:33.426Z,960
2018-03-27T07:47:33.440Z,955
2018-03-27T07:48:33.414Z,955
2018-03-27T07:49:33.467Z,955
2018-03-27T07:50:32.907Z,990
2018-03-27T07:51:33.433Z,980
2018-03-27T07:52:33.453Z,995
2018-03-27T07:53:33.435Z,995
2018-03-27T07:54:33.499Z,1000
2018-03-27T07:55:33.403Z,995
2018-03-27T07:56:33.412Z,995
2018-03-27T07:57:33.415Z,970
2018-03-27T07:58:33.409Z,820
2018-03-27T07:59:32.899Z,600
2018-03-27T08:00:32.895Z,440
2018-03-27T08:01:33.139Z,465
2018-03-27T08:02:32.636Z,865
2018-03-27T08:03:33.532Z,420
2018-03-27T08:04:33.422Z,405
2018-03-27T08:05:33.394Z,400
2018-03-27T08:06:33.413Z,385
2018-03-27T08:07:33.394Z,375
2018-03-27T08:08:33.388Z,370
2018-03-27T08:09:33.145Z,370
2018-03-27T08:10:33.127Z,370
2018-03-27T08:11:33.389Z,375
2018-03-27T08:12:33.194Z,380
2018-03-27T08:13:33.135Z,395
2018-03-27T08:14:32.879Z,405
2018-03-27T08:15:33.368Z,415
2018-03-27T08:16:33.169Z,420
2018-03-27T08:17:33.133Z,420
2018-03-27T08:18:33.451Z,405
2018-03-27T08:19:32.862Z,400
2018-03-27T08:20:33.350Z,395
2018-03-27T08:21:33.347Z,400
2018-03-27T08:22:33.093Z,410
2018-03-27T08:23:33.103Z,420
2018-03-27T08:24:33.587Z,415
2018-03-27T08:25:33.077Z,420
2018-03-27T08:26:33.333Z,440
2018-03-27T08:27:33.299Z,450
2018-03-27T08:28:33.092Z,465
2018-03-27T08:29:33.169Z,470
2018-03-27T08:30:32.549Z,475
2018-03-27T08:31:33.307Z,475
2018-03-27T08:32:32.795Z,475
2018-03-27T08:33:33.050Z,455
2018-03-27T08:34:32.852Z,420
2018-03-27T08:35:33.042Z,375
2018-03-27T08:36:33.669Z,320
2018-03-27T08:37:32.790Z,270
2018-03-27T08:38:33.094Z,235
2018-03-27T08:39:33.044Z,215
2018-03-27T08:40:33.047Z,205
2018-03-27T08:41:33.050Z,210
2018-03-27T08:42:33.015Z,220
2018-03-27T08:43:33.426Z,235
2018-03-27T08:44:32.989Z,250
2018-03-27T08:45:33.247Z,280
2018-03-27T08:46:33.250Z,320
2018-03-27T08:47:33.247Z,380
2018-03-27T08:48:32.965Z,430
2018-03-27T08:49:32.962Z,480
2018-03-27T08:50:32.984Z,520
2018-03-27T08:51:33.005Z,535
2018-03-27T08:52:32.710Z,585
2018-03-27T08:53:32.954Z,580
2018-03-27T08:54:33.024Z,570
2018-03-27T08:55:32.947Z,570
2018-03-27T08:56:32.925Z,575
2018-03-27T08:57:33.180Z,555
2018-03-27T08:58:33.166Z,525
2018-03-27T08:59:32.687Z,485
2018-03-27T09:00:33.152Z,445
2018-03-27T09:01:33.152Z,425
2018-03-27T09:02:32.933Z,410
2018-03-27T09:03:32.897Z,405
2018-03-27T09:04:32.899Z,395
2018-03-27T09:05:33.152Z,390
2018-03-27T09:06:32.891Z,385
2018-03-27T09:07:33.115Z,390
2018-03-27T09:08:32.621Z,380
2018-03-27T09:09:33.117Z,395
2018-03-27T09:10:33.114Z,385
2018-03-27T09:11:32.589Z,365
2018-03-27T09:12:32.584Z,340
2018-03-27T09:13:32.571Z,330
2018-03-27T09:14:32.588Z,320
2018-03-27T09:15:33.108Z,280
2018-03-27T09:16:32.874Z,365
2018-03-27T09:17:32.838Z,390
2018-03-27T09:18:32.807Z,410
2018-03-27T09:19:32.568Z,425
2018-03-27T09:20:32.788Z,435
2018-03-27T09:21:33.072Z,430
2018-03-27T09:22:32.557Z,425
2018-03-27T09:23:33.103Z,415
2018-03-27T09:24:33.055Z,405
2018-03-27T09:25:33.249Z,435
2018-03-27T09:26:33.143Z,480
2018-03-27T09:27:33.033Z,490
2018-03-27T09:28:32.784Z,530
2018-03-27T09:29:32.996Z,540
2018-03-27T09:30:32.798Z,525
2018-03-27T09:31:33.085Z,530
2018-03-27T09:32:32.793Z,510
2018-03-27T09:33:32.474Z,505
2018-03-27T09:34:32.735Z,505
2018-03-27T09:35:32.971Z,530
2018-03-27T09:36:32.720Z,575
2018-03-27T09:37:32.951Z,615
2018-03-27T09:38:32.291Z,630
2018-03-27T09:39:32.696Z,640
2018-03-27T09:40:32.955Z,645
2018-03-27T09:41:32.982Z,650
2018-03-27T09:42:32.669Z,655
2018-03-27T09:43:32.524Z,685
2018-03-27T09:44:32.439Z,680
2018-03-27T09:45:33.308Z,660
2018-03-27T09:46:32.400Z,615
2018-03-27T09:47:32.664Z,595
2018-03-27T09:48:32.949Z,590
2018-03-27T09:49:32.634Z,585
2018-03-27T09:50:32.924Z,575
2018-03-27T09:51:32.740Z,570
2018-03-27T09:52:32.936Z,565
2018-03-27T09:53:33.337Z,575
2018-03-27T09:54:32.362Z,580
2018-03-27T09:55:32.864Z,555
2018-03-27T09:56:32.863Z,530
2018-03-27T09:57:32.878Z,505
2018-03-27T09:58:32.722Z,485
2018-03-27T09:59:32.575Z,460
2018-03-27T10:00:32.855Z,450
2018-03-27T10:01:32.075Z,425
2018-03-27T10:02:32.830Z,400
2018-03-27T10:03:32.832Z,370
2018-03-27T10:04:32.609Z,325
2018-03-27T10:05:32.818Z,290
2018-03-27T10:06:32.800Z,265
2018-03-27T10:07:32.811Z,250
2018-03-27T10:08:32.814Z,235
2018-03-27T10:09:32.582Z,230
2018-03-27T10:10:32.780Z,230
2018-03-27T10:11:33.043Z,235
2018-03-27T10:12:32.797Z,240
2018-03-27T10:13:32.541Z,245
2018-03-27T10:14:32.021Z,250
2018-03-27T10:15:32.797Z,255
2018-03-27T10:16:32.751Z,265
2018-03-27T10:17:32.750Z,270
2018-03-27T10:18:32.760Z,285
2018-03-27T10:19:32.266Z,290
2018-03-27T10:20:32.752Z,295
2018-03-27T10:21:32.483Z,295
2018-03-27T10:22:32.737Z,300
2018-03-27T10:23:32.224Z,300
2018-03-27T10:24:32.719Z,300
2018-03-27T10:25:32.455Z,295
2018-03-27T10:26:32.696Z,295
2018-03-27T10:27:32.762Z,290
2018-03-27T10:28:32.455Z,295
2018-03-27T10:29:32.689Z,295
2018-03-27T10:30:32.185Z,295
2018-03-27T10:31:32.673Z,295
2018-03-27T10:32:32.663Z,295
2018-03-27T10:33:32.488Z,300
2018-03-27T10:34:32.690Z,305
2018-03-27T10:35:32.463Z,305
2018-03-27T10:36:32.419Z,305
2018-03-27T10:37:32.391Z,310
2018-03-27T10:38:32.481Z,315
2018-03-27T10:39:31.873Z,325
2018-03-27T10:40:32.638Z,335
2018-03-27T10:41:32.651Z,350
2018-03-27T10:42:32.959Z,360
2018-03-27T10:43:32.625Z,375
2018-03-27T10:44:32.625Z,385
2018-03-27T10:45:32.483Z,395
2018-03-27T10:46:32.599Z,390
2018-03-27T10:47:32.328Z,400
2018-03-27T10:48:32.324Z,400
2018-03-27T10:49:31.822Z,410
2018-03-27T10:50:32.582Z,435
2018-03-27T10:51:32.608Z,460
2018-03-27T10:52:32.297Z,475
2018-03-27T10:53:32.069Z,500
2018-03-27T10:54:32.055Z,520
2018-03-27T10:55:31.793Z,530
2018-03-27T10:56:32.309Z,540
2018-03-27T10:57:32.281Z,550
2018-03-27T10:58:32.033Z,560
2018-03-27T10:59:32.257Z,570
2018-03-27T11:00:32.278Z,570
2018-03-27T11:01:32.577Z,575
2018-03-27T11:02:32.298Z,580
2018-03-27T11:03:31.991Z,580
2018-03-27T11:04:32.512Z,585
2018-03-27T11:05:32.481Z,590
2018-03-27T11:06:32.259Z,585
2018-03-27T11:07:32.476Z,580
2018-03-27T11:08:31.975Z,575
2018-03-27T11:09:32.470Z,575
2018-03-27T11:10:32.463Z,570
2018-03-27T11:11:32.468Z,565
2018-03-27T11:12:32.241Z,565
2018-03-27T11:13:32.178Z,560
2018-03-27T11:14:32.945Z,560
2018-03-27T11:15:32.228Z,560
2018-03-27T11:16:31.966Z,560
2018-03-27T11:17:32.488Z,565
2018-03-27T11:18:32.235Z,570
2018-03-27T11:19:32.493Z,570
2018-03-27T11:20:32.440Z,575
2018-03-27T11:21:32.457Z,580
2018-03-27T11:22:32.220Z,595
2018-03-27T11:23:32.548Z,600
2018-03-27T11:24:32.544Z,595
2018-03-27T11:25:32.592Z,595
2018-03-27T11:26:32.485Z,595
2018-03-27T11:27:32.026Z,595
2018-03-27T11:28:32.516Z,600
2018-03-27T11:29:32.245Z,595
2018-03-27T11:30:32.204Z,595
2018-03-27T11:31:32.131Z,595
2018-03-27T11:32:32.155Z,595
2018-03-27T11:33:32.379Z,600
2018-03-27T11:34:32.109Z,605
2018-03-27T11:35:32.351Z,605
2018-03-27T11:36:32.089Z,605
2018-03-27T11:37:31.857Z,605
2018-03-27T11:38:32.421Z,605
2018-03-27T11:39:31.829Z,605
2018-03-27T11:40:32.458Z,600
2018-03-27T11:41:32.356Z,595
2018-03-27T11:42:32.132Z,590
2018-03-27T11:43:32.390Z,585
2018-03-27T11:44:32.627Z,580
2018-03-27T11:45:32.478Z,575
2018-03-27T11:46:32.529Z,570
2018-03-27T11:47:32.411Z,570
2018-03-27T11:48:32.263Z,575
2018-03-27T11:49:32.467Z,580
2018-03-27T11:50:31.945Z,585
2018-03-27T11:51:31.658Z,580
2018-03-27T11:52:32.420Z,575
2018-03-27T11:53:32.236Z,570
2018-03-27T11:54:32.192Z,565
2018-03-27T11:55:32.217Z,560
2018-03-27T11:56:32.470Z,555
2018-03-27T11:57:31.782Z,545
2018-03-27T11:58:32.055Z,540
2018-03-27T11:59:32.294Z,535
2018-03-27T12:00:32.033Z,535
2018-03-27T12:01:33.032Z,530
2018-03-27T12:02:32.291Z,535
2018-03-27T12:03:32.269Z,540
2018-03-27T12:04:31.762Z,550
2018-03-27T12:05:32.279Z,550
2018-03-27T12:06:32.251Z,560
2018-03-27T12:07:31.790Z,560
2018-03-27T12:08:32.231Z,560
2018-03-27T12:09:31.231Z,565
2018-03-27T12:10:32.066Z,565
2018-03-27T12:11:31.959Z,565
2018-03-27T12:12:31.954Z,560
2018-03-27T12:13:31.444Z,565
2018-03-27T12:14:31.953Z,560
2018-03-27T12:15:32.483Z,565
2018-03-27T12:16:31.988Z,565
2018-03-27T12:17:32.208Z,560
2018-03-27T12:18:32.200Z,560
2018-03-27T12:19:31.939Z,555
2018-03-27T12:20:31.938Z,560
2018-03-27T12:21:32.208Z,565
2018-03-27T12:22:32.179Z,555
2018-03-27T12:23:31.689Z,555
2018-03-27T12:24:32.161Z,550
2018-03-27T12:25:32.161Z,540
2018-03-27T12:26:32.174Z,535
2018-03-27T12:27:32.149Z,535
2018-03-27T12:28:31.896Z,530
2018-03-27T12:29:32.167Z,530
2018-03-27T12:30:32.145Z,535
2018-03-27T12:31:32.147Z,540
2018-03-27T12:32:31.892Z,540
2018-03-27T12:33:31.620Z,540
2018-03-27T12:34:32.148Z,535
2018-03-27T12:35:32.393Z,530
2018-03-27T12:36:32.128Z,530
2018-03-27T12:37:31.632Z,520
2018-03-27T12:38:32.140Z,510
2018-03-27T12:39:32.222Z,505
2018-03-27T12:40:32.103Z,500
2018-03-27T12:41:31.853Z,500
2018-03-27T12:42:32.203Z,495
2018-03-27T12:43:32.104Z,485
2018-03-27T12:44:32.125Z,475
2018-03-27T12:45:31.838Z,470
2018-03-27T12:46:32.390Z,465
2018-03-27T12:47:32.095Z,465
2018-03-27T12:48:32.112Z,465
2018-03-27T12:49:31.558Z,465
2018-03-27T12:50:32.089Z,475
2018-03-27T12:51:31.835Z,485
2018-03-27T12:52:32.092Z,495
2018-03-27T12:53:31.839Z,495
2018-03-27T12:54:31.832Z,500
2018-03-27T12:55:31.881Z,510
2018-03-27T12:56:32.045Z,520
2018-03-27T12:57:32.039Z,530
2018-03-27T12:58:31.812Z,525
2018-03-27T12:59:31.846Z,525
2018-03-27T13:00:31.949Z,525
2018-03-27T13:01:32.102Z,525
2018-03-27T13:02:31.614Z,525
2018-03-27T13:03:31.763Z,530
2018-03-27T13:04:32.023Z,525
2018-03-27T13:05:32.077Z,520
2018-03-27T13:06:32.050Z,520
2018-03-27T13:07:31.794Z,505
2018-03-27T13:08:31.784Z,495
2018-03-27T13:09:32.048Z,480
2018-03-27T13:10:31.992Z,475
2018-03-27T13:11:31.488Z,465
2018-03-27T13:12:32.016Z,455
2018-03-27T13:13:31.996Z,450
2018-03-27T13:14:31.728Z,445
2018-03-27T13:15:31.987Z,440
2018-03-27T13:16:31.732Z,430
2018-03-27T13:17:31.718Z,420
2018-03-27T13:18:31.729Z,405
2018-03-27T13:19:31.511Z,390
2018-03-27T13:20:31.982Z,385
2018-03-27T13:21:31.445Z,380
2018-03-27T13:22:32.016Z,375
2018-03-27T13:23:31.760Z,370
2018-03-27T13:24:31.467Z,365
2018-03-27T13:25:31.707Z,360
2018-03-27T13:26:31.518Z,350
2018-03-27T13:27:31.942Z,340
2018-03-27T13:28:31.947Z,330
2018-03-27T13:29:31.964Z,325
2018-03-27T13:30:31.927Z,320
2018-03-27T13:31:31.993Z,315
2018-03-27T13:32:32.700Z,315
2018-03-27T13:33:31.668Z,320
2018-03-27T13:34:31.936Z,315
2018-03-27T13:35:31.925Z,320
2018-03-27T13:36:31.918Z,325
2018-03-27T13:37:31.682Z,325
2018-03-27T13:38:31.461Z,325
2018-03-27T13:39:31.658Z,325
2018-03-27T13:40:31.381Z,330
2018-03-27T13:41:32.123Z,330
2018-03-27T13:42:31.870Z,335
2018-03-27T13:43:31.617Z,325
2018-03-27T13:44:31.368Z,325
2018-03-27T13:45:31.857Z,315
2018-03-27T13:46:31.864Z,300
2018-03-27T13:47:32.105Z,285
2018-03-27T13:48:31.589Z,275
2018-03-27T13:49:31.892Z,265
2018-03-27T13:50:31.844Z,260
2018-03-27T13:51:31.567Z,260
2018-03-27T13:52:31.590Z,260
2018-03-27T13:53:31.704Z,260
2018-03-27T13:54:31.809Z,260
2018-03-27T13:55:31.824Z,250
2018-03-27T13:56:31.566Z,250
2018-03-27T13:57:31.355Z,235
2018-03-27T13:58:31.305Z,235
2018-03-27T13:59:31.534Z,235
2018-03-27T14:00:31.695Z,240
2018-03-27T14:01:31.769Z,240
2018-03-27T14:02:31.537Z,240
2018-03-27T14:03:31.823Z,240
2018-03-27T14:04:31.792Z,245
2018-03-27T14:05:31.752Z,245
2018-03-27T14:06:31.258Z,255
2018-03-27T14:07:31.746Z,255
2018-03-27T14:08:31.859Z,260